createdAt,value
2022-09-01T00:01:27.113Z,11.23
2022-09-01T00:03:55.484Z,11.94
2022-09-01T00:06:24.329Z,12.03
2022-09-01T00:08:55.887Z,11.77
2022-09-01T00:11:24.661Z,11.97
2022-09-01T00:13:52.851Z,11.96
2022-09-01T00:16:21.404Z,11.09
2022-09-01T00:18:53.642Z,11.88
2022-09-01T00:21:26.900Z,11.58
2022-09-01T00:23:54.188Z,10.75
2022-09-01T00:26:21.338Z,11.37
2022-09-01T00:28:48.048Z,10.19
2022-09-01T00:31:18.963Z,10.81
2022-09-01T00:33:47.780Z,11.70
2022-09-01T00:36:15.660Z,11.21
2022-09-01T00:38:42.623Z,11.14
2022-09-01T00:41:09.330Z,10.79
2022-09-01T00:43:40.887Z,11.81
2022-09-01T00:46:10.988Z,11.83
2022-09-01T00:48:37.823Z,11.79
2022-09-01T00:51:07.823Z,11.64
2022-09-01T00:53:35.839Z,11.80
2022-09-01T00:56:04.060Z,11.62
2022-09-01T00:58:32.450Z,11.75
2022-09-01T01:00:59.534Z,11.50
2022-09-01T01:03:26.135Z,11.83
2022-09-01T01:05:58.266Z,10.31
2022-09-01T01:08:34.058Z,11.76
2022-09-01T01:11:02.824Z,10.71
2022-09-01T01:13:49.342Z,11.53
2022-09-01T01:16:16.108Z,11.72
2022-09-01T01:18:43.100Z,11.79
2022-09-01T01:21:43.564Z,11.46
2022-09-01T01:24:31.901Z,11.76
2022-09-01T01:27:02.079Z,11.18
2022-09-01T01:29:32.981Z,11.59
2022-09-01T01:32:00.623Z,11.49
2022-09-01T01:34:27.289Z,11.66
2022-09-01T01:36:55.231Z,11.70
2022-09-01T01:39:25.520Z,11.66
2022-09-01T01:41:54.314Z,11.68
2022-09-01T01:44:27.895Z,11.62
2022-09-01T01:46:57.501Z,11.14
2022-09-01T01:49:29.092Z,11.53
2022-09-01T01:51:57.925Z,11.04
2022-09-01T01:54:32.360Z,11.56
2022-09-01T01:57:00.505Z,11.50
2022-09-01T01:59:29.611Z,11.74
2022-09-01T02:01:56.637Z,11.64
2022-09-01T02:04:23.671Z,11.53
2022-09-01T02:06:52.674Z,11.48
2022-09-01T02:09:23.178Z,11.43
2022-09-01T02:11:54.330Z,11.47
2022-09-01T02:14:21.711Z,10.82
2022-09-01T02:16:48.530Z,11.53
2022-09-01T02:19:19.526Z,10.67
2022-09-01T02:21:49.026Z,11.41
2022-09-01T02:24:15.577Z,10.93
2022-09-01T02:26:47.412Z,11.42
2022-09-01T02:29:19.137Z,11.49
2022-09-01T02:31:48.331Z,11.47
2022-09-01T02:34:16.487Z,11.40
2022-09-01T02:36:50.133Z,11.36
2022-09-01T02:39:23.377Z,11.41
2022-09-01T02:41:50.892Z,10.65
2022-09-01T02:44:23.118Z,11.09
2022-09-01T02:46:50.738Z,11.45
2022-09-01T02:49:28.373Z,11.30
2022-09-01T02:52:01.225Z,11.37
2022-09-01T02:54:31.116Z,11.26
2022-09-01T02:56:57.805Z,11.32
2022-09-01T02:59:27.448Z,11.28
2022-09-01T03:01:57.969Z,11.23
2022-09-01T03:04:27.070Z,10.62
2022-09-01T03:06:54.834Z,11.25
2022-09-01T03:09:22.982Z,11.22
2022-09-01T03:11:52.271Z,11.22
2022-09-01T03:14:19.794Z,10.87
2022-09-01T03:16:46.601Z,11.05
2022-09-01T03:19:14.413Z,10.98
2022-09-01T03:21:43.879Z,11.27
2022-09-01T03:24:15.363Z,10.76
2022-09-01T03:26:44.262Z,11.11
2022-09-01T03:29:12.068Z,10.92
2022-09-01T03:31:38.960Z,11.10
2022-09-01T03:34:06.705Z,10.98
2022-09-01T03:36:39.718Z,11.15
2022-09-01T03:39:14.543Z,11.18
2022-09-01T03:41:43.567Z,10.38
2022-09-01T03:44:12.080Z,11.09
2022-09-01T03:46:40.389Z,10.95
2022-09-01T03:49:15.277Z,10.21
2022-09-01T03:51:44.877Z,10.37
2022-09-01T03:54:12.314Z,10.91
2022-09-01T03:56:41.625Z,11.34
2022-09-01T03:59:17.027Z,10.79
2022-09-01T04:01:45.420Z,11.42
2022-09-01T04:04:13.986Z,11.50
2022-09-01T04:06:43.759Z,11.34
2022-09-01T04:09:10.946Z,11.66
2022-09-01T04:11:43.765Z,11.28
2022-09-01T04:14:15.257Z,11.73
2022-09-01T04:17:02.349Z,11.93
2022-09-01T04:19:30.586Z,12.16
2022-09-01T04:22:00.418Z,12.23
2022-09-01T04:24:34.775Z,10.86
2022-09-01T04:27:03.162Z,11.73
2022-09-01T04:29:31.787Z,11.85
2022-09-01T04:32:03.646Z,12.41
2022-09-01T04:34:41.612Z,12.41
2022-09-01T04:37:21.370Z,12.38
2022-09-01T04:39:56.698Z,12.36
2022-09-01T04:42:32.575Z,11.38
2022-09-01T04:45:10.571Z,12.27
2022-09-01T04:47:42.099Z,12.10
2022-09-01T04:50:17.872Z,11.84
2022-09-01T04:53:06.766Z,11.89
2022-09-01T04:55:46.152Z,11.26
2022-09-01T04:58:18.731Z,11.79
2022-09-01T05:00:52.338Z,11.49
2022-09-01T05:03:23.970Z,11.77
2022-09-01T05:06:02.526Z,11.42
2022-09-01T05:08:29.210Z,11.70
2022-09-01T05:11:07.522Z,12.24
2022-09-01T05:13:40.391Z,12.36
2022-09-01T05:16:13.301Z,11.81
2022-09-01T05:18:47.474Z,12.40
2022-09-01T05:21:22.349Z,12.18
2022-09-01T05:23:51.682Z,12.29
2022-09-01T05:26:26.142Z,12.57
2022-09-01T05:28:55.395Z,11.94
2022-09-01T05:31:23.880Z,12.71
2022-09-01T05:33:51.798Z,12.26
2022-09-01T05:36:22.979Z,12.75
2022-09-01T05:38:52.202Z,12.85
2022-09-01T05:41:21.035Z,12.98
2022-09-01T05:43:50.433Z,13.14
2022-09-01T05:46:22.832Z,12.82
2022-09-01T05:48:51.894Z,11.63
2022-09-01T05:51:43.222Z,13.35
2022-09-01T05:54:09.856Z,13.60
2022-09-01T05:56:43.696Z,13.64
2022-09-01T05:59:23.351Z,13.50
2022-09-01T06:01:53.469Z,12.97
2022-09-01T06:04:22.861Z,13.48
2022-09-01T06:07:08.446Z,13.28
2022-09-01T06:09:41.500Z,13.56
2022-09-01T06:12:17.245Z,13.09
2022-09-01T06:14:46.541Z,13.18
2022-09-01T06:17:16.608Z,13.88
2022-09-01T06:19:44.323Z,13.74
2022-09-01T06:22:11.447Z,13.91
2022-09-01T06:24:40.799Z,13.89
2022-09-01T06:27:10.997Z,13.74
2022-09-01T06:29:41.707Z,13.68
2022-09-01T06:32:10.422Z,13.77
2022-09-01T06:34:44.519Z,14.38
2022-09-01T06:37:13.283Z,13.89
2022-09-01T06:39:43.888Z,14.10
2022-09-01T06:42:12.876Z,14.25
2022-09-01T06:44:54.709Z,14.54
2022-09-01T06:47:21.407Z,14.35
2022-09-01T06:49:48.078Z,13.05
2022-09-01T06:52:20.818Z,14.04
2022-09-01T06:54:48.694Z,14.39
2022-09-01T07:00:07.878Z,14.29
2022-09-01T07:02:34.526Z,14.18
2022-09-01T07:08:13.494Z,15.09
2022-09-01T07:16:41.921Z,15.06
2022-09-01T07:19:19.289Z,15.07
2022-09-01T07:22:07.958Z,15.21
2022-09-01T07:24:36.879Z,15.24
2022-09-01T07:27:35.661Z,15.13
2022-09-01T07:30:03.530Z,15.56
2022-09-01T07:32:47.654Z,15.21
2022-09-01T07:35:19.944Z,15.81
2022-09-01T07:38:47.527Z,16.19
2022-09-01T07:44:05.216Z,15.76
2022-09-01T07:46:38.111Z,15.43
2022-09-01T07:52:02.156Z,15.31
2022-09-01T07:54:30.222Z,15.25
2022-09-01T07:56:57.353Z,15.26
2022-09-01T07:59:27.811Z,14.58
2022-09-01T08:02:18.397Z,13.31
2022-09-01T08:04:46.406Z,14.33
2022-09-01T08:07:17.071Z,14.67
2022-09-01T08:09:44.613Z,14.97
2022-09-01T08:12:13.230Z,15.57
2022-09-01T08:14:46.702Z,16.42
2022-09-01T08:17:18.027Z,17.16
2022-09-01T08:20:07.993Z,17.26
2022-09-01T08:22:51.846Z,17.08
2022-09-01T08:25:25.084Z,16.12
2022-09-01T08:27:59.804Z,16.77
2022-09-01T08:30:27.856Z,16.84
2022-09-01T08:32:54.519Z,17.38
2022-09-01T08:35:21.354Z,17.68
2022-09-01T08:37:47.905Z,17.90
2022-09-01T08:40:20.588Z,17.41
2022-09-01T08:42:58.132Z,17.06
2022-09-01T08:45:30.134Z,17.18
2022-09-01T08:49:16.099Z,17.06
2022-09-01T08:51:13.504Z,16.11
2022-09-01T08:54:10.747Z,16.35
2022-09-01T08:56:38.181Z,16.82
2022-09-01T08:59:09.591Z,16.89
2022-09-01T09:02:06.517Z,16.79
2022-09-01T09:04:40.954Z,16.94
2022-09-01T09:07:35.099Z,17.11
2022-09-01T09:10:30.634Z,17.25
2022-09-01T09:13:18.497Z,17.70
2022-09-01T09:16:09.459Z,18.01
2022-09-01T09:18:56.795Z,18.11
2022-09-01T09:21:36.950Z,17.35
2022-09-01T09:24:09.034Z,16.54
2022-09-01T09:26:42.969Z,16.81
2022-09-01T09:29:09.803Z,15.87
2022-09-01T09:31:46.125Z,16.85
2022-09-01T09:34:30.162Z,17.58
2022-09-01T09:36:57.369Z,17.63
2022-09-01T09:39:24.100Z,17.77
2022-09-01T09:42:12.302Z,17.48
2022-09-01T09:44:52.779Z,18.67
2022-09-01T09:47:44.695Z,18.84
2022-09-01T09:50:43.152Z,18.91
2022-09-01T09:53:14.717Z,19.02
2022-09-01T09:55:57.343Z,19.47
2022-09-01T09:58:28.089Z,18.70
2022-09-01T10:01:17.340Z,18.82
2022-09-01T10:03:59.042Z,18.54
2022-09-01T10:06:37.651Z,18.27
2022-09-01T10:09:08.187Z,18.03
2022-09-01T10:11:44.438Z,17.69
2022-09-01T10:14:35.382Z,17.74
2022-09-01T10:17:32.392Z,17.69
2022-09-01T10:20:17.560Z,17.53
2022-09-01T10:22:44.955Z,17.38
2022-09-01T10:25:19.512Z,17.48
2022-09-01T10:27:55.497Z,16.97
2022-09-01T10:30:24.889Z,17.56
2022-09-01T10:32:56.963Z,17.01
2022-09-01T10:35:29.698Z,17.46
2022-09-01T10:37:59.442Z,17.60
2022-09-01T10:40:30.975Z,17.45
2022-09-01T10:43:27.300Z,17.27
2022-09-01T10:45:58.906Z,17.07
2022-09-01T10:48:47.914Z,15.78
2022-09-01T10:51:19.221Z,17.41
2022-09-01T10:54:06.761Z,18.85
2022-09-01T10:56:52.612Z,20.44
2022-09-01T10:59:43.471Z,20.88
2022-09-01T11:02:26.005Z,20.05
2022-09-01T11:05:02.824Z,19.41
2022-09-01T11:07:50.759Z,18.17
2022-09-01T11:10:49.345Z,18.93
2022-09-01T11:13:47.598Z,19.63
2022-09-01T11:16:52.134Z,21.40
2022-09-01T11:19:31.969Z,21.89
2022-09-01T11:22:26.780Z,21.80
2022-09-01T11:25:40.766Z,22.32
2022-09-01T11:28:17.873Z,23.11
2022-09-01T11:31:06.547Z,23.97
2022-09-01T11:33:51.142Z,24.42
2022-09-01T11:36:39.224Z,23.73
2022-09-01T11:39:18.040Z,23.59
2022-09-01T11:41:54.503Z,24.57
2022-09-01T11:44:46.733Z,25.39
2022-09-01T11:47:26.689Z,23.67
2022-09-01T11:50:04.191Z,26.11
2022-09-01T11:52:35.891Z,28.77
2022-09-01T11:55:06.157Z,31.85
2022-09-01T11:57:35.545Z,34.09
2022-09-01T12:00:06.659Z,35.59
2022-09-01T12:02:47.098Z,36.84
2022-09-01T12:05:43.376Z,35.24
2022-09-01T12:08:18.281Z,36.45
2022-09-01T12:10:50.668Z,37.49
2022-09-01T12:13:21.634Z,38.03
2022-09-01T12:16:17.073Z,33.30
2022-09-01T12:18:47.508Z,28.25
2022-09-01T12:21:31.728Z,25.04
2022-09-01T12:24:16.458Z,22.66
2022-09-01T12:26:44.838Z,22.09
2022-09-01T12:29:13.899Z,23.17
2022-09-01T12:31:45.566Z,24.45
2022-09-01T12:34:28.128Z,24.64
2022-09-01T12:37:20.752Z,22.18
2022-09-01T12:39:50.661Z,20.72
2022-09-01T12:42:20.362Z,20.13
2022-09-01T12:44:52.100Z,20.05
2022-09-01T12:47:35.788Z,22.22
2022-09-01T12:50:29.776Z,25.39
2022-09-01T12:53:04.803Z,25.03
2022-09-01T12:55:50.259Z,23.81
2022-09-01T12:58:25.602Z,21.54
2022-09-01T13:01:16.127Z,19.97
2022-09-01T13:04:03.644Z,19.84
2022-09-01T13:06:30.170Z,19.24
2022-09-01T13:08:56.912Z,17.18
2022-09-01T13:11:23.723Z,17.60
2022-09-01T13:13:50.284Z,17.98
2022-09-01T13:16:16.964Z,17.83
2022-09-01T13:21:32.180Z,18.38
2022-09-01T13:23:59.003Z,18.06
2022-09-01T13:26:26.337Z,21.97
2022-09-01T13:28:53.796Z,26.13
2022-09-01T13:31:36.031Z,28.29
2022-09-01T13:34:10.755Z,26.43
2022-09-01T13:36:49.487Z,23.83
2022-09-01T13:39:19.006Z,22.03
2022-09-01T13:41:47.822Z,21.34
2022-09-01T13:44:16.985Z,20.78
2022-09-01T13:47:00.937Z,20.03
2022-09-01T13:52:18.587Z,19.13
2022-09-01T13:54:45.374Z,19.03
2022-09-01T13:57:12.263Z,18.90
2022-09-01T13:59:39.035Z,18.92
2022-09-01T14:02:05.952Z,18.70
2022-09-01T14:04:32.538Z,17.87
2022-09-01T14:06:59.764Z,17.97
2022-09-01T14:09:26.432Z,18.40
2022-09-01T14:11:54.423Z,20.95
2022-09-01T14:14:21.804Z,24.07
2022-09-01T14:16:49.207Z,23.93
2022-09-01T14:19:15.958Z,22.49
2022-09-01T14:21:44.396Z,20.45
2022-09-01T14:24:12.844Z,20.05
2022-09-01T14:26:41.286Z,20.10
2022-09-01T14:29:08.473Z,23.58
2022-09-01T14:31:37.670Z,24.84
2022-09-01T14:34:05.023Z,24.43
2022-09-01T14:36:31.592Z,22.90
2022-09-01T14:38:59.486Z,22.70
2022-09-01T14:41:27.176Z,22.06
2022-09-01T14:44:02.318Z,22.19
2022-09-01T14:46:34.292Z,21.51
2022-09-01T14:49:02.503Z,20.32
2022-09-01T14:54:17.487Z,18.13
2022-09-01T14:57:28.603Z,19.04
2022-09-01T14:59:31.258Z,18.40
2022-09-01T15:01:57.965Z,18.11
2022-09-01T15:04:24.769Z,17.82
2022-09-01T15:06:51.396Z,16.32
2022-09-01T15:09:19.254Z,17.62
2022-09-01T15:11:46.408Z,17.73
2022-09-01T15:14:13.207Z,17.70
2022-09-01T15:16:41.464Z,17.83
2022-09-01T15:19:11.012Z,17.74
2022-09-01T15:21:40.199Z,17.52
2022-09-01T15:24:08.617Z,16.01
2022-09-01T15:26:35.960Z,17.19
2022-09-01T15:29:03.661Z,17.01
2022-09-01T15:31:33.569Z,16.95
2022-09-01T15:34:03.737Z,16.97
2022-09-01T15:36:31.281Z,16.05
2022-09-01T15:38:58.519Z,16.91
2022-09-01T15:41:28.112Z,16.82
2022-09-01T15:43:56.141Z,16.16
2022-09-01T15:46:23.466Z,16.20
2022-09-01T15:48:50.576Z,16.17
2022-09-01T15:51:23.248Z,16.35
2022-09-01T15:53:58.360Z,15.74
2022-09-01T15:56:24.992Z,15.79
2022-09-01T15:59:00.667Z,15.91
2022-09-01T16:01:29.833Z,15.73
2022-09-01T16:03:57.394Z,15.99
2022-09-01T16:06:24.583Z,15.35
2022-09-01T16:08:54.560Z,15.97
2022-09-01T16:11:25.219Z,15.15
2022-09-01T16:13:53.899Z,15.80
2022-09-01T16:17:08.569Z,15.83
2022-09-01T16:19:56.796Z,15.82
2022-09-01T16:22:37.203Z,15.60
2022-09-01T16:25:31.694Z,15.48
2022-09-01T16:28:07.159Z,15.60
2022-09-01T16:30:34.459Z,15.42
2022-09-01T16:33:04.646Z,15.06
2022-09-01T16:35:49.105Z,15.31
2022-09-01T16:38:29.262Z,15.35
2022-09-01T16:40:58.862Z,15.39
2022-09-01T16:43:49.739Z,14.26
2022-09-01T16:46:45.643Z,15.23
2022-09-01T16:49:39.920Z,15.13
2022-09-01T16:52:17.252Z,14.75
2022-09-01T16:55:21.223Z,14.90
2022-09-01T16:58:13.270Z,12.94
2022-09-01T17:00:57.971Z,15.05
2022-09-01T17:03:43.835Z,14.98
2022-09-01T17:06:21.583Z,15.00
2022-09-01T17:08:55.378Z,14.56
2022-09-01T17:11:32.800Z,14.95
2022-09-01T17:14:01.073Z,14.29
2022-09-01T17:16:39.778Z,14.70
2022-09-01T17:19:16.286Z,14.83
2022-09-01T17:21:53.321Z,14.80
2022-09-01T17:24:28.407Z,14.74
2022-09-01T17:27:02.512Z,14.19
2022-09-01T17:29:34.376Z,14.76
2022-09-01T17:32:13.867Z,14.69
2022-09-01T17:34:45.667Z,14.70
2022-09-01T17:37:46.247Z,14.62
2022-09-01T17:40:21.369Z,14.21
2022-09-01T17:43:06.724Z,14.51
2022-09-01T17:45:51.311Z,14.42
2022-09-01T17:48:22.024Z,14.34
2022-09-01T17:51:26.551Z,14.35
2022-09-01T17:54:19.212Z,14.34
2022-09-01T17:56:56.778Z,14.37
2022-09-01T18:00:01.908Z,14.19
2022-09-01T18:03:04.137Z,14.37
2022-09-01T18:05:40.102Z,14.18
2022-09-01T18:08:28.137Z,14.35
2022-09-01T18:11:06.646Z,14.34
2022-09-01T18:14:07.590Z,14.29
2022-09-01T18:16:57.158Z,14.15
2022-09-01T18:19:29.291Z,13.88
2022-09-01T18:22:03.642Z,13.69
2022-09-01T18:24:49.144Z,14.14
2022-09-01T18:27:15.739Z,14.11
2022-09-01T18:29:45.477Z,13.85
2022-09-01T18:32:36.838Z,14.03
2022-09-01T18:35:34.069Z,13.84
2022-09-01T18:38:19.323Z,13.99
2022-09-01T18:41:12.060Z,13.92
2022-09-01T18:43:48.727Z,13.56
2022-09-01T18:46:49.583Z,13.78
2022-09-01T18:49:49.072Z,13.78
2022-09-01T18:52:36.966Z,13.76
2022-09-01T18:55:25.064Z,13.71
2022-09-01T18:57:56.193Z,13.72
2022-09-01T19:00:52.195Z,13.58
2022-09-01T19:03:38.666Z,13.52
2022-09-01T19:06:22.292Z,13.44
2022-09-01T19:09:20.957Z,13.50
2022-09-01T19:11:59.786Z,13.48
2022-09-01T19:14:43.148Z,13.37
2022-09-01T19:17:20.257Z,13.29
2022-09-01T19:19:59.424Z,12.88
2022-09-01T19:23:05.604Z,13.16
2022-09-01T19:25:38.746Z,13.02
2022-09-01T19:28:18.879Z,13.11
2022-09-01T19:31:00.587Z,12.75
2022-09-01T19:33:34.722Z,13.07
2022-09-01T19:36:09.438Z,13.05
2022-09-01T19:38:37.315Z,13.02
2022-09-01T19:41:08.858Z,12.99
2022-09-01T19:43:41.000Z,12.96
2022-09-01T19:46:38.033Z,12.97
2022-09-01T19:49:20.504Z,12.96
2022-09-01T19:52:03.601Z,12.96
2022-09-01T19:54:55.217Z,12.11
2022-09-01T19:57:28.727Z,12.89
2022-09-01T20:00:19.995Z,12.91
2022-09-01T20:03:01.117Z,12.68
2022-09-01T20:05:34.746Z,11.95
2022-09-01T20:08:08.528Z,11.30
2022-09-01T20:10:42.556Z,12.74
2022-09-01T20:13:29.338Z,12.65
2022-09-01T20:16:12.395Z,12.62
2022-09-01T20:18:46.858Z,12.66
2022-09-01T20:21:18.810Z,12.65
2022-09-01T20:23:55.463Z,12.65
2022-09-01T20:26:27.152Z,12.31
2022-09-01T20:29:01.497Z,12.17
2022-09-01T20:31:32.452Z,12.11
2022-09-01T20:34:29.206Z,11.30
2022-09-01T20:37:18.219Z,12.43
2022-09-01T20:40:01.173Z,12.37
2022-09-01T20:42:48.403Z,11.08
2022-09-01T20:45:19.505Z,12.04
2022-09-01T20:48:01.762Z,11.64
2022-09-01T20:50:54.045Z,12.26
2022-09-01T20:54:13.648Z,11.99
2022-09-01T20:57:16.851Z,11.72
2022-09-01T20:59:51.850Z,12.14
2022-09-01T21:02:33.287Z,12.11
2022-09-01T21:05:41.370Z,12.17
2022-09-01T21:08:29.678Z,12.15
2022-09-01T21:11:08.589Z,12.04
2022-09-01T21:13:59.698Z,11.93
2022-09-01T21:16:34.023Z,11.37
2022-09-01T21:19:20.964Z,11.88
2022-09-01T21:22:03.359Z,11.87
2022-09-01T21:24:30.179Z,11.36
2022-09-01T21:26:59.535Z,11.38
2022-09-01T21:29:39.511Z,11.77
2022-09-01T21:32:06.552Z,11.80
2022-09-01T21:34:33.254Z,9.87
2022-09-01T21:36:59.929Z,11.23
2022-09-01T21:39:26.519Z,11.19
2022-09-01T21:41:53.242Z,11.38
2022-09-01T21:44:21.040Z,11.78
2022-09-01T21:46:48.273Z,11.48
2022-09-01T21:49:15.145Z,11.52
2022-09-01T21:51:42.159Z,11.72
2022-09-01T21:54:09.871Z,11.44
2022-09-01T21:56:36.944Z,10.97
2022-09-01T21:59:04.135Z,11.14
2022-09-01T22:01:33.800Z,11.33
2022-09-01T22:04:01.552Z,11.23
2022-09-01T22:06:28.282Z,9.88
2022-09-01T22:08:54.846Z,11.44
2022-09-01T22:11:21.682Z,11.43
2022-09-01T22:13:49.609Z,11.21
2022-09-01T22:16:18.619Z,10.77
2022-09-01T22:18:45.339Z,11.10
2022-09-01T22:21:12.142Z,11.30
2022-09-01T22:23:40.291Z,10.12
2022-09-01T22:26:09.639Z,11.09
2022-09-01T22:28:39.196Z,10.91
2022-09-01T22:31:07.145Z,11.05
2022-09-01T22:33:34.072Z,9.76
2022-09-01T22:36:00.663Z,10.51
2022-09-01T22:38:27.282Z,11.13
2022-09-01T22:40:57.163Z,11.15
2022-09-01T22:43:24.621Z,11.15
2022-09-01T22:45:52.062Z,10.56
2022-09-01T22:48:20.956Z,10.91
2022-09-01T22:50:48.970Z,11.10
2022-09-01T22:53:17.750Z,11.07
2022-09-01T22:55:47.101Z,10.99
2022-09-01T22:58:15.113Z,10.95
2022-09-01T23:00:48.124Z,10.77
2022-09-01T23:03:15.711Z,10.90
2022-09-01T23:05:43.031Z,10.95
2022-09-01T23:08:09.837Z,10.94
2022-09-01T23:10:36.442Z,10.73
2022-09-01T23:13:03.094Z,10.91
2022-09-01T23:15:29.928Z,10.69
2022-09-01T23:17:56.460Z,10.93
2022-09-01T23:20:23.040Z,10.69
2022-09-01T23:22:49.839Z,10.11
2022-09-01T23:25:16.938Z,10.57
2022-09-01T23:27:43.535Z,9.72
2022-09-01T23:30:12.921Z,10.33
2022-09-01T23:32:39.914Z,10.70
2022-09-01T23:35:07.605Z,10.46
2022-09-01T23:37:34.253Z,10.20
2022-09-01T23:40:00.921Z,10.59
2022-09-01T23:42:27.474Z,9.71
2022-09-01T23:44:54.028Z,10.26
2022-09-01T23:47:20.526Z,10.52
2022-09-01T23:49:47.029Z,10.47
2022-09-01T23:52:13.703Z,9.89
2022-09-01T23:54:40.260Z,10.35
2022-09-01T23:57:06.889Z,9.59
2022-09-01T23:59:33.420Z,9.21
